Time;durP1;ratioP1;P1;durP2;ratioP2;P2;SDS_P1;SDS_P2;PMS_P1;PMS_P2;Temp;Humidity;BMP_temperature;BMP_pressure;BME280_temperature;BME280_humidity;BME280_pressure;Samples;Min_cycle;Max_cycle;Signal;HPM_P1;HPM_P2
2022/03/10 00:00:32;;;;;;;17.70;8.50;;;;;;;0.73;95.09;100573.19;6371503;27;20126;-67
2022/03/10 00:03:33;;;;;;;12.98;6.38;;;;;;;0.73;94.22;100582.63;6354428;27;20509;-67
2022/03/10 00:06:33;;;;;;;10.65;6.15;;;;;;;0.48;93.90;100580.34;6371065;27;20075;-67
2022/03/10 00:09:34;;;;;;;15.57;7.38;;;;;;;0.32;93.13;100582.22;6371443;27;20063;-67
2022/03/10 00:12:36;;;;;;;10.98;6.35;;;;;;;0.41;92.22;100578.69;6371097;27;20046;-67
2022/03/10 00:15:37;;;;;;;13.35;6.38;;;;;;;0.43;88.85;100587.22;6371197;27;20063;-67
2022/03/10 00:18:38;;;;;;;20.15;6.47;;;;;;;0.48;88.53;100589.75;6371272;27;20486;-67
2022/03/10 00:21:39;;;;;;;10.77;6.03;;;;;;;0.37;86.36;100584.72;6353938;27;20051;-67
2022/03/10 00:24:40;;;;;;;10.63;5.22;;;;;;;0.32;85.50;100594.19;6371132;27;20558;-67
2022/03/10 00:27:42;;;;;;;10.38;5.32;;;;;;;0.22;83.87;100601.13;6370948;27;20039;-67
2022/03/10 00:30:43;;;;;;;12.02;5.45;;;;;;;0.33;82.45;100611.28;6356957;27;20035;-67
2022/03/10 00:33:43;;;;;;;9.20;5.47;;;;;;;0.21;81.76;100617.41;6370964;27;20062;-67
2022/03/10 00:36:45;;;;;;;3.85;2.88;;;;;;;0.15;79.73;100615.75;6368385;27;20071;-66
2022/03/10 00:39:46;;;;;;;10.10;4.82;;;;;;;0.28;77.49;100613.06;6372068;27;20122;-67
2022/03/10 00:42:47;;;;;;;10.23;5.15;;;;;;;0.23;77.05;100617.38;6341414;28;20054;-67
2022/03/10 00:45:48;;;;;;;10.75;5.70;;;;;;;0.18;76.07;100617.44;6365831;27;20041;-66
2022/03/10 00:48:49;;;;;;;11.25;5.03;;;;;;;0.11;75.97;100619.22;6353522;28;20058;-68
2022/03/10 00:51:50;;;;;;;8.68;4.97;;;;;;;0.00;77.37;100633.88;6371766;27;20495;-68
2022/03/10 00:54:51;;;;;;;10.70;5.45;;;;;;;-0.03;78.08;100639.00;6343173;28;20039;-68
2022/03/10 00:57:52;;;;;;;11.07;5.40;;;;;;;-0.12;78.40;100631.41;6354890;27;20092;-67
2022/03/10 01:00:53;;;;;;;12.43;5.15;;;;;;;-0.28;77.68;100640.91;6360085;27;20099;-67
2022/03/10 01:03:54;;;;;;;11.43;5.40;;;;;;;-0.22;77.44;100643.44;6353618;27;20039;-67
2022/03/10 01:06:54;;;;;;;9.98;4.85;;;;;;;-0.30;75.83;100642.63;6365439;27;20063;-67
2022/03/10 01:09:55;;;;;;;8.48;4.90;;;;;;;-0.29;73.86;100647.75;6380846;27;20062;-70
2022/03/10 01:12:56;;;;;;;8.43;4.70;;;;;;;-0.30;71.58;100653.75;6343082;28;20097;-71
2022/03/10 01:15:57;;;;;;;8.43;4.45;;;;;;;-0.36;72.86;100648.66;6343109;28;20442;-70
2022/03/10 01:18:58;;;;;;;9.48;5.82;;;;;;;-0.56;72.48;100641.06;6344504;28;20126;-71
2022/03/10 01:21:58;;;;;;;9.25;4.90;;;;;;;-0.49;71.24;100637.63;6326155;28;20043;-70
2022/03/10 01:24:59;;;;;;;8.32;4.70;;;;;;;-0.60;70.71;100631.69;6344215;28;20040;-70
2022/03/10 01:28:00;;;;;;;7.72;4.38;;;;;;;-0.72;70.30;100642.03;6327247;28;20046;-70
2022/03/10 01:31:01;;;;;;;10.15;4.50;;;;;;;-0.58;68.88;100635.09;6344489;28;20083;-70
2022/03/10 01:34:02;;;;;;;7.57;4.65;;;;;;;-0.67;68.21;100643.69;6327361;28;20063;-70
2022/03/10 01:37:03;;;;;;;7.97;4.18;;;;;;;-0.81;68.20;100640.38;6345374;28;20123;-70
2022/03/10 01:40:09;;;;;;;9.63;4.50;;;;;;;-0.68;68.74;100651.41;6344228;28;20046;-70
2022/03/10 01:43:10;;;;;;;8.43;4.90;;;;;;;-0.72;68.03;100644.59;6344215;28;20246;-70
2022/03/10 01:46:11;;;;;;;6.32;3.97;;;;;;;-0.69;67.06;100642.84;6327017;28;20416;-70
2022/03/10 01:49:12;;;;;;;7.50;4.72;;;;;;;-0.87;67.58;100651.47;6343960;28;20399;-70
2022/03/10 01:52:14;;;;;;;6.22;3.22;;;;;;;-0.89;65.29;100650.63;6343867;28;20079;-70
2022/03/10 01:55:15;;;;;;;14.07;4.57;;;;;;;-0.74;63.85;100644.63;6344165;28;20050;-70
2022/03/10 01:58:16;;;;;;;8.35;3.80;;;;;;;-0.96;62.09;100654.09;6343942;28;20040;-70
2022/03/10 02:01:18;;;;;;;3.73;2.63;;;;;;;-0.93;61.59;100666.88;6345085;28;20036;-70
2022/03/10 02:04:19;;;;;;;6.00;3.28;;;;;;;-0.92;60.11;100667.75;6345069;28;20032;-70
2022/03/10 02:10:50;;;;;;;6.28;3.13;;;;;;;-0.75;60.31;100671.09;6340667;28;20075;-70
2022/03/10 02:13:50;;;;;;;9.43;4.55;;;;;;;-0.92;59.98;100678.84;6349456;28;20053;-70
2022/03/10 02:20:11;;;;;;;6.05;3.65;;;;;;;-0.93;59.95;100681.41;6367784;27;20058;-70
2022/03/10 02:23:12;;;;;;;6.80;3.25;;;;;;;-0.92;60.06;100681.41;6348102;28;20085;-70
2022/03/10 02:26:12;;;;;;;6.72;3.60;;;;;;;-0.87;60.53;100683.94;6347861;28;20035;-70
2022/03/10 02:29:14;;;;;;;6.38;3.10;;;;;;;-0.99;60.28;100695.09;6349119;28;20120;-70
2022/03/10 02:32:16;;;;;;;6.78;3.22;;;;;;;-1.10;61.92;100700.25;6330986;28;20050;-70
2022/03/10 02:35:17;;;;;;;8.98;4.30;;;;;;;-1.06;63.00;100704.50;6349019;28;20043;-70
2022/03/10 02:38:19;;;;;;;5.15;3.08;;;;;;;-1.10;60.99;100710.50;6348806;28;20032;-70
2022/03/10 02:41:20;;;;;;;6.97;3.92;;;;;;;-1.00;62.35;100715.59;6348750;28;20051;-70
2022/03/10 02:44:20;;;;;;;7.25;3.53;;;;;;;-1.11;61.82;100711.38;6347421;28;20123;-70
2022/03/10 02:47:21;;;;;;;6.88;3.17;;;;;;;-1.07;61.00;100725.00;6348505;28;20035;-70
2022/03/10 02:50:23;;;;;;;6.15;2.92;;;;;;;-1.13;61.10;100728.44;6347378;28;20067;-70
2022/03/10 02:53:23;;;;;;;12.98;3.55;;;;;;;-1.17;60.30;100731.00;6348451;28;20040;-70
2022/03/10 02:56:24;;;;;;;5.60;3.03;;;;;;;-1.10;60.33;100738.66;6347249;28;20046;-70
2022/03/10 02:59:25;;;;;;;7.32;3.10;;;;;;;-1.16;59.88;100733.56;6348348;28;20242;-70
2022/03/10 03:02:26;;;;;;;5.32;3.05;;;;;;;-1.33;59.81;100736.16;6348286;28;20048;-70
2022/03/10 03:05:27;;;;;;;5.93;3.50;;;;;;;-1.23;59.64;100739.56;6346989;28;20040;-67
2022/03/10 03:08:28;;;;;;;6.28;3.03;;;;;;;-1.22;58.26;100747.22;6312867;28;20548;-67
2022/03/10 03:11:29;;;;;;;6.45;3.47;;;;;;;-1.26;57.74;100750.63;6346814;28;20054;-67
2022/03/10 03:14:30;;;;;;;7.57;3.38;;;;;;;-1.22;57.41;100751.50;6329847;28;20047;-67
2022/03/10 03:17:31;;;;;;;5.72;2.55;;;;;;;-1.27;57.81;100760.91;6346721;28;20050;-67
2022/03/10 03:20:32;;;;;;;5.30;2.75;;;;;;;-1.36;58.82;100758.34;6346541;28;20062;-68
2022/03/10 03:23:32;;;;;;;7.22;3.17;;;;;;;-1.25;56.59;100770.28;6329935;28;20075;-67
2022/03/10 03:26:33;;;;;;;5.82;2.80;;;;;;;-1.36;58.32;100758.34;6346462;28;20050;-67
2022/03/10 03:29:34;;;;;;;4.10;2.38;;;;;;;-1.33;56.03;100766.03;6347629;28;20043;-67
2022/03/10 03:32:35;;;;;;;3.35;1.75;;;;;;;-1.47;55.19;100766.88;6347658;28;20047;-69
2022/03/10 03:35:36;;;;;;;9.18;3.40;;;;;;;-1.40;55.90;100767.75;6346395;28;20153;-68
2022/03/10 03:38:37;;;;;;;11.50;3.30;;;;;;;-1.42;55.65;100774.56;6329306;28;20036;-68
2022/03/10 03:41:38;;;;;;;4.32;2.80;;;;;;;-1.45;55.73;100772.84;6347304;28;20046;-68
2022/03/10 03:44:39;;;;;;;6.80;3.28;;;;;;;-1.38;54.27;100786.53;6346037;28;20398;-68
2022/03/10 03:47:40;;;;;;;2.88;1.15;;;;;;;-1.41;53.50;100783.94;6328888;28;20055;-67
2022/03/10 03:50:40;;;;;;;3.10;2.17;;;;;;;-1.37;53.53;100790.78;6345863;28;20526;-68
2022/03/10 03:53:41;;;;;;;3.88;1.88;;;;;;;-1.45;53.50;100795.03;6328834;28;20050;-68
2022/03/10 03:56:42;;;;;;;6.72;3.42;;;;;;;-1.35;53.66;100796.75;6328947;28;20075;-68
2022/03/10 03:59:43;;;;;;;5.18;2.97;;;;;;;-1.38;54.47;100806.13;6345741;28;20126;-68
2022/03/10 04:02:47;;;;;;;5.25;2.80;;;;;;;-1.43;53.53;100811.25;6362739;27;20047;-67
2022/03/10 04:05:48;;;;;;;6.40;2.55;;;;;;;-1.48;53.43;100815.53;6345712;28;20058;-68
2022/03/10 04:08:49;;;;;;;4.28;1.33;;;;;;;-1.49;53.53;100827.47;6328515;28;20126;-67
2022/03/10 04:11:50;;;;;;;4.20;2.22;;;;;;;-1.46;53.24;100831.75;6345386;28;20419;-67
2022/03/10 04:14:51;;;;;;;5.85;2.53;;;;;;;-1.52;54.04;100826.63;6346710;28;20066;-67
2022/03/10 04:17:51;;;;;;;5.18;2.80;;;;;;;-1.58;53.17;100827.47;6345367;28;20118;-67
2022/03/10 04:20:52;;;;;;;3.50;2.28;;;;;;;-1.49;53.00;100827.47;6346973;28;20050;-68
2022/03/10 04:23:53;;;;;;;5.28;2.50;;;;;;;-1.53;53.19;100843.66;6328407;28;20044;-68
2022/03/10 04:26:54;;;;;;;3.72;1.92;;;;;;;-1.62;53.31;100848.78;6345211;28;20061;-68
2022/03/10 04:29:54;;;;;;;4.22;1.80;;;;;;;-1.65;52.59;100851.31;6344473;28;20050;-67
2022/03/10 04:32:55;;;;;;;1.75;1.23;;;;;;;-1.55;52.57;100852.19;6328188;28;20043;-67
2022/03/10 04:35:56;;;;;;;4.65;1.63;;;;;;;-1.62;52.83;100857.31;6328039;28;20042;-71
2022/03/10 04:38:57;;;;;;;7.20;2.95;;;;;;;-1.66;52.95;100863.28;6344914;28;20047;-71
2022/03/10 04:41:58;;;;;;;9.20;1.92;;;;;;;-1.70;52.54;100864.13;6327718;28;20051;-71
2022/03/10 04:44:59;;;;;;;3.97;2.42;;;;;;;-1.69;51.92;100872.63;6328009;28;20134;-71
2022/03/10 04:48:00;;;;;;;6.18;2.15;;;;;;;-1.63;52.97;100883.78;6344615;28;20062;-71
2022/03/10 04:51:00;;;;;;;5.65;2.80;;;;;;;-1.64;52.81;100879.47;6327938;28;20051;-71
2022/03/10 04:54:01;;;;;;;5.15;2.83;;;;;;;-1.59;52.71;100883.75;6362114;27;20054;-71
2022/03/10 04:57:02;;;;;;;3.55;1.52;;;;;;;-1.70;52.98;100884.59;6344673;28;20074;-71
2022/03/10 05:00:08;;;;;;;4.82;2.58;;;;;;;-1.66;52.34;100888.88;6345827;28;20097;-71
2022/03/10 05:03:10;;;;;;;5.40;2.55;;;;;;;-1.73;52.55;100897.38;6311599;28;20513;-72
2022/03/10 05:06:11;;;;;;;4.93;2.63;;;;;;;-1.72;52.33;100903.34;6344576;28;20096;-72
2022/03/10 05:09:11;;;;;;;6.70;2.85;;;;;;;-1.76;53.50;100905.03;6310662;28;20051;-72
2022/03/10 05:12:13;;;;;;;3.58;2.28;;;;;;;-1.98;53.32;100904.09;6344444;28;20510;-70
2022/03/10 05:15:17;;;;;;;5.20;3.20;;;;;;;-1.79;53.55;100911.84;6310781;28;20067;-70
2022/03/10 05:18:18;;;;;;;5.55;2.85;;;;;;;-1.72;52.63;100918.72;6344393;28;20040;-70
2022/03/10 05:21:19;;;;;;;3.83;2.03;;;;;;;-1.75;52.43;100923.78;6344392;28;20070;-66
2022/03/10 05:24:20;;;;;;;6.38;2.92;;;;;;;-1.70;52.16;100930.66;6310743;28;20059;-66
2022/03/10 05:27:20;;;;;;;6.55;2.28;;;;;;;-1.64;52.36;100933.22;6345553;28;20046;-66
2022/03/10 05:30:21;;;;;;;5.57;3.40;;;;;;;-1.55;52.19;100939.22;6344227;28;20095;-66
2022/03/10 05:33:22;;;;;;;5.35;2.60;;;;;;;-1.66;51.83;100941.75;6344307;28;20063;-66
2022/03/10 05:36:23;;;;;;;4.88;2.50;;;;;;;-1.58;52.56;100949.47;6345452;28;20423;-66
2022/03/10 05:39:24;;;;;;;5.60;2.67;;;;;;;-1.65;51.24;100956.25;6327187;28;20412;-68
2022/03/10 05:42:25;;;;;;;7.00;2.28;;;;;;;-1.48;51.50;100957.19;6346697;28;20044;-68
2022/03/10 05:45:26;;;;;;;4.22;2.08;;;;;;;-1.48;50.82;100958.88;6366074;27;20525;-71
2022/03/10 05:48:27;;;;;;;4.13;2.08;;;;;;;-1.49;50.48;100965.69;6331894;28;20040;-72
2022/03/10 05:51:28;;;;;;;6.80;2.35;;;;;;;-1.41;50.71;100968.28;6348499;28;20051;-72
2022/03/10 05:54:29;;;;;;;7.07;2.90;;;;;;;-1.28;51.13;100976.84;6348643;28;20078;-71
2022/03/10 05:57:30;;;;;;;3.53;2.00;;;;;;;-1.24;49.85;100979.41;6348745;28;20039;-72
2022/03/10 06:00:31;;;;;;;10.13;2.38;;;;;;;-1.24;49.60;100974.28;6349941;28;20082;-71
2022/03/10 06:03:32;;;;;;;5.88;2.72;;;;;;;-1.09;49.44;100991.41;6348494;28;20036;-72
2022/03/10 06:06:32;;;;;;;6.55;2.70;;;;;;;-1.09;50.42;100987.97;6348431;28;20108;-72
2022/03/10 06:09:33;;;;;;;4.50;2.58;;;;;;;-1.11;49.20;100994.78;6349504;28;20043;-72
2022/03/10 06:12:34;;;;;;;6.05;2.88;;;;;;;-1.05;49.01;100994.81;6349651;28;20381;-72
2022/03/10 06:15:35;;;;;;;5.53;3.13;;;;;;;-0.93;48.99;101014.47;6348346;28;20173;-72
2022/03/10 06:18:36;;;;;;;5.03;3.35;;;;;;;-0.78;48.47;101004.25;6349491;28;20384;-71
2022/03/10 06:21:38;;;;;;;5.38;3.08;;;;;;;-0.76;47.78;101014.50;6347915;28;20082;-71
2022/03/10 06:24:39;;;;;;;4.43;2.47;;;;;;;-0.61;47.94;101025.63;6365237;27;20048;-72
2022/03/10 06:27:40;;;;;;;8.27;3.03;;;;;;;-0.48;47.15;101016.22;6349222;28;20118;-72
2022/03/10 06:30:40;;;;;;;8.90;3.15;;;;;;;-0.43;47.33;101034.19;6347750;28;20048;-72
2022/03/10 06:33:41;;;;;;;5.20;2.83;;;;;;;-0.28;47.47;101028.19;6330947;28;20048;-72
2022/03/10 06:36:42;;;;;;;3.03;1.63;;;;;;;-0.37;46.16;101031.63;6347689;28;20051;-72
2022/03/10 06:39:43;;;;;;;4.93;2.13;;;;;;;-0.24;45.89;101041.00;6347512;28;20487;-72
2022/03/10 06:42:44;;;;;;;7.55;3.40;;;;;;;-0.18;45.63;101045.28;6330517;28;20047;-71
2022/03/10 06:45:45;;;;;;;10.13;4.07;;;;;;;-0.05;47.21;101046.94;6330789;28;20048;-71
2022/03/10 06:48:45;;;;;;;6.65;3.75;;;;;;;0.10;45.86;101050.34;6349023;28;20059;-72
2022/03/10 06:51:46;;;;;;;3.88;2.40;;;;;;;0.04;44.52;101051.22;6313546;28;20151;-71
2022/03/10 06:54:47;;;;;;;5.60;2.58;;;;;;;0.14;44.45;101057.19;6347878;28;20055;-72
2022/03/10 06:57:48;;;;;;;5.75;2.45;;;;;;;0.25;44.33;101058.03;6347130;28;20514;-72
2022/03/10 07:00:49;;;;;;;7.47;3.20;;;;;;;0.36;44.37;101058.84;6330054;28;20063;-72
2022/03/10 07:03:51;;;;;;;6.57;3.50;;;;;;;0.60;44.06;101075.06;6346892;28;20112;-71
2022/03/10 07:06:52;;;;;;;4.18;3.00;;;;;;;0.59;43.09;101068.19;6330349;28;20036;-72
2022/03/10 07:09:53;;;;;;;4.65;2.50;;;;;;;0.80;42.95;101070.69;6329778;28;20510;-72
2022/03/10 07:12:54;;;;;;;12.02;2.50;;;;;;;0.88;42.56;101080.06;6329857;28;20052;-72
2022/03/10 07:15:55;;;;;;;5.50;3.20;;;;;;;0.86;42.58;101072.34;6346694;28;20055;-72
2022/03/10 07:18:56;;;;;;;8.60;3.47;;;;;;;0.98;41.91;101079.16;6346618;28;20299;-72
2022/03/10 07:21:57;;;;;;;5.88;2.85;;;;;;;0.76;41.85;101076.69;6363418;27;20112;-70
2022/03/10 07:24:58;;;;;;;4.65;2.30;;;;;;;0.83;42.75;101076.66;6346597;28;20418;-70
2022/03/10 07:27:59;;;;;;;6.53;3.65;;;;;;;1.07;43.49;101079.13;6329509;28;20090;-70
2022/03/10 07:31:00;;;;;;;4.75;2.58;;;;;;;1.21;41.84;101084.16;6346198;28;20071;-70
2022/03/10 07:34:01;;;;;;;5.35;2.15;;;;;;;1.23;41.40;101085.00;6346434;28;20514;-70
2022/03/10 07:37:02;;;;;;;8.77;3.40;;;;;;;1.50;41.04;101083.97;6346116;28;20483;-70
2022/03/10 07:40:04;;;;;;;6.10;3.20;;;;;;;1.54;40.83;101077.94;6345939;28;20526;-70
2022/03/10 07:43:05;;;;;;;2.92;2.13;;;;;;;1.54;38.78;101079.66;6363114;27;20047;-69
2022/03/10 07:46:06;;;;;;;12.18;7.18;;;;;;;1.68;39.73;101079.56;6329133;28;20082;-70
2022/03/10 07:49:08;;;;;;;5.00;2.45;;;;;;;1.51;39.03;101083.13;6345982;28;20043;-70
2022/03/10 07:52:09;;;;;;;12.43;2.88;;;;;;;1.54;38.57;101077.09;6363026;27;20092;-70
2022/03/10 07:55:13;;;;;;;7.28;3.30;;;;;;;1.74;39.05;101095.78;6345747;28;20047;-72
2022/03/10 07:58:14;;;;;;;23.83;7.97;;;;;;;1.95;38.53;101084.47;6345784;28;20139;-72
2022/03/10 08:01:14;;;;;;;7.45;3.45;;;;;;;1.97;38.45;101094.75;6347104;28;20088;-68
2022/03/10 08:04:16;;;;;;;6.80;2.60;;;;;;;2.00;37.43;101079.28;6345181;28;20127;-68
2022/03/10 08:07:17;;;;;;;4.73;2.93;;;;;;;2.06;37.56;101086.06;6379342;27;20074;-70
2022/03/10 08:10:18;;;;;;;3.17;1.88;;;;;;;2.35;37.06;101091.81;6345347;28;20051;-69
2022/03/10 08:13:24;;;;;;;7.25;3.38;;;;;;;2.44;36.74;101084.84;6328668;28;20138;-69
2022/03/10 08:16:25;;;;;;;5.80;2.47;;;;;;;2.44;36.94;101093.44;6345267;28;20051;-66
2022/03/10 08:19:26;;;;;;;5.75;2.13;;;;;;;2.47;36.33;101092.53;6328455;28;20067;-69
2022/03/10 08:22:27;;;;;;;6.28;2.97;;;;;;;2.34;36.54;101095.25;6346285;28;20115;-69
2022/03/10 08:25:28;;;;;;;4.95;2.97;;;;;;;2.50;35.93;101098.50;6345273;28;20042;-68
2022/03/10 08:28:29;;;;;;;7.28;3.70;;;;;;;2.72;35.87;101091.41;6328227;28;20051;-69
2022/03/10 08:31:29;;;;;;;5.57;3.50;;;;;;;2.88;35.47;101086.88;6327903;28;20423;-67
2022/03/10 08:34:30;;;;;;;7.05;3.30;;;;;;;2.99;35.15;101087.63;6345188;28;20044;-68
2022/03/10 08:37:31;;;;;;;6.10;3.80;;;;;;;2.74;34.93;101083.63;6345040;28;20047;-69
2022/03/10 08:40:32;;;;;;;10.65;3.28;;;;;;;3.06;35.44;101095.28;6344990;28;20101;-69
2022/03/10 08:43:33;;;;;;;5.25;3.40;;;;;;;3.14;35.59;101096.88;6327742;28;20067;-69
2022/03/10 08:46:34;;;;;;;6.50;2.72;;;;;;;3.21;34.98;101097.63;6327835;28;20052;-68
2022/03/10 08:49:35;;;;;;;4.97;3.45;;;;;;;3.49;34.90;101104.97;6327823;28;20450;-68
2022/03/10 08:52:36;;;;;;;3.70;2.33;;;;;;;3.35;33.71;101098.28;6344541;28;20135;-67
2022/03/10 08:55:37;;;;;;;6.80;3.88;;;;;;;3.54;34.54;101106.63;6344776;28;20070;-66
2022/03/10 08:58:38;;;;;;;4.57;2.78;;;;;;;3.63;33.74;101101.31;6344577;28;20422;-69
2022/03/10 09:01:39;;;;;;;7.03;3.50;;;;;;;3.44;33.38;101105.06;6345802;28;20036;-67
2022/03/10 09:04:40;;;;;;;7.95;3.50;;;;;;;3.72;32.69;101099.47;6310852;28;20456;-66
2022/03/10 09:07:41;;;;;;;8.35;3.70;;;;;;;4.11;33.10;101102.25;6344475;28;20055;-67
2022/03/10 09:10:42;;;;;;;9.30;3.58;;;;;;;4.20;34.17;101102.94;6344338;28;20051;-70
2022/03/10 09:13:48;;;;;;;8.10;3.95;;;;;;;4.60;34.41;101112.53;6345771;28;20112;-70
2022/03/10 09:16:51;;;;;;;6.95;3.65;;;;;;;4.44;33.18;101117.13;6346225;28;20062;-70
2022/03/10 09:19:53;;;;;;;8.10;4.13;;;;;;;4.42;32.77;101097.38;6349705;28;20500;-70
2022/03/10 09:22:54;;;;;;;;;;;;;;;4.38;32.06;101113.81;6366898;27;20078;-70
2022/03/10 09:25:55;;;;;;;6.43;3.67;;;;;;;4.51;32.35;101114.44;6349413;28;20287;-70
2022/03/10 09:28:56;;;;;;;6.18;3.55;;;;;;;4.80;32.33;101119.06;6349517;28;20047;-70
2022/03/10 09:31:57;;;;;;;7.68;3.70;;;;;;;5.02;34.40;101114.28;6315313;28;20051;-70
2022/03/10 09:34:58;;;;;;;7.22;4.25;;;;;;;4.91;31.69;101117.09;6349197;28;20050;-71
2022/03/10 09:37:58;;;;;;;7.80;3.72;;;;;;;5.24;30.84;101117.25;6315249;28;20082;-70
2022/03/10 09:40:59;;;;;;;8.07;3.08;;;;;;;4.91;31.17;101124.00;6349229;27;20044;-71
2022/03/10 09:44:00;;;;;;;6.97;3.67;;;;;;;4.91;30.56;101114.50;6348723;28;20039;-71
2022/03/10 09:47:03;;;;;;;6.15;3.60;;;;;;;4.95;31.17;101115.31;6332035;28;20054;-71
2022/03/10 09:50:07;;;;;;;6.93;3.78;;;;;;;4.92;30.86;101108.47;6349153;27;20051;-71
2022/03/10 09:53:08;;;;;;;5.95;2.95;;;;;;;5.44;30.44;101114.25;6348598;28;20085;-71
2022/03/10 09:56:09;;;;;;;7.47;3.65;;;;;;;5.50;29.22;101105.47;6331712;28;20052;-71
2022/03/10 09:59:12;;;;;;;5.43;3.30;;;;;;;5.21;30.44;101119.94;6331760;28;20108;-71
2022/03/10 10:02:13;;;;;;;5.65;3.60;;;;;;;5.07;30.07;101127.13;6382839;27;20079;-72
2022/03/10 10:05:31;;;;;;;9.77;3.35;;;;;;;5.40;29.68;101136.75;6331543;28;20055;-71
2022/03/10 10:08:34;;;;;;;6.22;3.30;;;;;;;5.18;29.96;101126.00;6349741;28;20044;-71
2022/03/10 10:11:35;;;;;;;8.15;3.72;;;;;;;5.29;28.92;101125.75;6348071;28;20142;-71
2022/03/10 10:14:39;;;;;;;12.10;3.85;;;;;;;5.74;28.63;101122.16;6314691;28;20061;-71
2022/03/10 10:17:40;;;;;;;7.43;3.60;;;;;;;5.59;29.19;101137.19;6314566;28;20058;-71
2022/03/10 10:20:49;;;;;;;6.10;3.40;;;;;;;5.34;29.24;101130.88;6331599;28;20047;-71
2022/03/10 10:23:53;;;;;;;9.48;4.25;;;;;;;5.43;29.70;101138.41;6348001;28;20479;-71
2022/03/10 10:27:21;;;;;;;8.23;4.35;;;;;;;5.58;30.80;101135.50;6330954;28;20052;-71
2022/03/10 10:30:22;;;;;;;10.02;4.03;;;;;;;4.45;32.45;101136.09;6348634;28;20042;-71
2022/03/10 10:33:24;;;;;;;9.43;4.70;;;;;;;4.88;32.85;101124.06;6347684;28;20055;-71
2022/03/10 10:36:27;;;;;;;6.95;3.10;;;;;;;4.03;31.52;101143.72;6330725;28;20052;-71
2022/03/10 10:39:28;;;;;;;12.18;3.85;;;;;;;4.26;31.97;101138.13;6347699;28;20058;-71
2022/03/10 10:42:34;;;;;;;9.52;4.53;;;;;;;5.00;32.59;101137.63;6330344;28;20051;-71
2022/03/10 10:45:38;;;;;;;11.73;5.00;;;;;;;5.07;33.80;101135.75;6348706;28;20035;-67
2022/03/10 10:48:47;;;;;;;7.93;3.65;;;;;;;4.94;29.92;101132.56;6348614;28;20047;-67
2022/03/10 10:51:53;;;;;;;3.60;2.50;;;;;;;5.34;29.93;101134.28;6347175;28;20064;-67
2022/03/10 10:55:11;;;;;;;10.15;3.50;;;;;;;5.42;28.98;101121.19;6347227;28;20047;-68
2022/03/10 10:58:15;;;;;;;8.65;3.92;;;;;;;5.42;30.40;101123.78;6347185;28;20044;-68
2022/03/10 11:01:45;;;;;;;7.13;3.53;;;;;;;5.25;29.55;101122.41;6330107;28;20421;-68
2022/03/10 11:04:48;;;;;;;7.85;3.38;;;;;;;5.54;29.28;101117.44;6333959;28;20048;-69
2022/03/10 11:07:49;;;;;;;6.20;3.50;;;;;;;5.93;29.56;101130.34;6348208;28;20447;-68
2022/03/10 11:10:52;;;;;;;6.47;3.63;;;;;;;5.60;29.53;101128.53;6347038;28;20052;-66
2022/03/10 11:13:53;;;;;;;6.38;3.20;;;;;;;5.54;28.68;101132.97;6346662;28;20055;-69
2022/03/10 11:16:55;;;;;;;6.45;3.65;;;;;;;5.45;29.30;101126.28;6346989;28;20040;-66
2022/03/10 11:20:00;;;;;;;6.22;4.30;;;;;;;5.91;30.36;101117.44;6363977;27;20120;-67
2022/03/10 11:23:32;;;;;;;6.40;2.92;;;;;;;5.71;28.95;101122.25;6329555;28;20066;-66
2022/03/10 11:26:40;;;;;;;7.25;4.18;;;;;;;5.64;29.67;101124.13;6381155;27;20123;-71
2022/03/10 11:29:45;;;;;;;9.23;4.18;;;;;;;5.63;28.70;101130.19;6347918;28;20035;-70
2022/03/10 11:33:03;;;;;;;4.68;2.92;;;;;;;5.33;28.24;101134.31;6346462;28;20043;-70
2022/03/10 11:36:23;;;;;;;7.43;3.72;;;;;;;5.53;28.37;101126.13;6346388;28;20079;-70
2022/03/10 11:39:24;;;;;;;9.10;4.38;;;;;;;5.60;28.98;101133.72;6363220;27;20124;-71
2022/03/10 11:42:30;;;;;;;4.97;3.28;;;;;;;5.97;28.66;101138.06;6346076;28;20044;-70
2022/03/10 11:45:31;;;;;;;6.68;3.67;;;;;;;5.81;28.39;101140.13;6347445;28;20047;-71
2022/03/10 11:48:34;;;;;;;10.32;3.78;;;;;;;6.01;27.83;101129.31;6346126;28;20067;-71
2022/03/10 11:51:56;;;;;;;8.38;3.72;;;;;;;5.69;28.83;101131.81;6346931;28;20721;-71
2022/03/10 11:55:13;;;;;;;10.40;3.97;;;;;;;6.09;29.35;101146.41;6347085;28;20076;-71
2022/03/10 11:58:18;;;;;;;7.65;3.63;;;;;;;6.64;28.00;101134.59;6345746;28;20495;-71
2022/03/10 12:01:20;;;;;;;5.60;3.20;;;;;;;5.61;27.80;101142.31;6346883;28;20048;-71
2022/03/10 12:04:21;;;;;;;10.45;4.38;;;;;;;4.96;27.96;101137.69;6328721;28;20071;-71
2022/03/10 12:07:28;;;;;;;7.80;4.05;;;;;;;5.40;28.20;101138.50;6346843;28;20118;-71
2022/03/10 12:10:40;;;;;;;4.78;3.10;;;;;;;5.56;28.16;101133.78;6345557;28;20521;-72
2022/03/10 12:13:46;;;;;;;5.28;3.65;;;;;;;5.30;29.71;101139.59;6346543;28;20048;-71
2022/03/10 12:16:47;;;;;;;7.38;3.03;;;;;;;5.68;28.49;101136.09;6345612;28;20156;-71
2022/03/10 12:20:15;;;;;;;7.43;3.38;;;;;;;5.62;28.73;101137.13;6345322;28;20057;-71
2022/03/10 12:23:19;;;;;;;5.75;3.60;;;;;;;5.83;30.33;101140.94;6342007;28;20071;-71
2022/03/10 12:26:33;;;;;;;5.32;3.55;;;;;;;5.85;27.63;101139.16;6346334;28;20043;-71
2022/03/10 12:29:35;;;;;;;6.32;3.90;;;;;;;5.68;28.30;101132.66;6345199;28;20075;-71
2022/03/10 12:32:37;;;;;;;;;;;;;;;5.98;27.22;101131.13;6346623;28;20403;-71
2022/03/10 12:35:41;;;;;;;7.13;3.55;;;;;;;6.02;28.14;101137.94;6345022;28;19927;-71
2022/03/10 12:38:46;;;;;;;6.93;3.67;;;;;;;6.47;27.48;101139.38;6361929;27;20058;-71
2022/03/10 12:41:50;;;;;;;11.05;3.55;;;;;;;5.37;27.25;101144.56;6346242;28;20050;-71
2022/03/10 12:44:54;;;;;;;11.48;4.05;;;;;;;5.49;28.48;101134.84;6344750;28;20044;-71
2022/03/10 12:47:58;;;;;;;9.02;3.65;;;;;;;5.74;27.60;101145.47;6346082;28;20040;-71
2022/03/10 12:50:59;;;;;;;7.22;4.22;;;;;;;5.79;27.48;101130.69;6344112;28;20075;-71
2022/03/10 12:54:02;;;;;;;4.55;3.13;;;;;;;5.52;28.12;101130.44;6345877;28;20127;-71
2022/03/10 12:57:05;;;;;;;7.05;3.97;;;;;;;5.74;27.18;101132.53;6344875;28;20047;-71
2022/03/10 13:00:19;;;;;;;12.00;4.82;;;;;;;6.24;27.81;101138.25;6345895;28;20039;-67
2022/03/10 13:03:20;;;;;;;6.90;3.63;;;;;;;5.58;27.23;101137.19;6344397;28;20051;-67
2022/03/10 13:06:24;;;;;;;8.45;5.47;;;;;;;5.73;26.85;101134.28;6327657;28;20430;-67
2022/03/10 13:09:24;;;;;;;8.20;3.97;;;;;;;5.90;27.84;101144.22;6344536;28;20060;-67
2022/03/10 13:12:34;;;;;;;10.73;4.10;;;;;;;5.93;28.38;101131.22;6327679;28;20089;-66
2022/03/10 13:15:35;;;;;;;7.75;3.83;;;;;;;5.89;30.07;101132.19;6345692;28;20376;-67
2022/03/10 13:18:43;;;;;;;5.20;2.55;;;;;;;5.74;27.69;101145.47;6344616;28;20074;-67
2022/03/10 13:22:00;;;;;;;6.85;2.95;;;;;;;5.24;28.09;101149.16;6345770;28;20493;-67
2022/03/10 13:25:01;;;;;;;10.70;3.88;;;;;;;5.20;28.89;101163.06;6361363;27;20484;-67
2022/03/10 13:28:16;;;;;;;5.40;3.03;;;;;;;5.15;28.40;101166.63;6344486;28;20040;-67
2022/03/10 13:31:18;;;;;;;5.00;2.97;;;;;;;4.66;29.17;101168.44;6345455;28;20039;-67
2022/03/10 13:34:20;;;;;;;4.45;2.33;;;;;;;4.79;29.09;101171.66;6344302;28;20094;-67
2022/03/10 13:37:22;;;;;;;7.15;3.67;;;;;;;5.32;28.94;101166.28;6344023;28;20048;-67
2022/03/10 13:40:23;;;;;;;6.15;3.50;;;;;;;5.83;28.38;101172.03;6344276;27;20070;-69
2022/03/10 13:43:27;;;;;;;4.97;3.22;;;;;;;5.46;27.50;101182.38;6345465;28;20258;-68
2022/03/10 13:46:32;;;;;;;4.80;2.70;;;;;;;5.34;27.80;101164.50;6378917;27;20136;-68
2022/03/10 13:49:44;;;;;;;4.47;2.75;;;;;;;5.03;28.54;101159.97;6343973;28;20051;-67
2022/03/10 13:52:46;;;;;;;4.55;2.92;;;;;;;5.37;27.76;101156.66;6343854;28;20423;-68
2022/03/10 13:55:48;;;;;;;8.25;3.90;;;;;;;5.64;27.58;101168.13;6343763;28;20051;-68
2022/03/10 13:58:49;;;;;;;7.43;3.88;;;;;;;5.41;27.53;101163.47;6345220;28;20498;-68
2022/03/10 14:01:50;;;;;;;10.02;3.80;;;;;;;5.39;28.66;101158.31;6344048;28;20047;-68
2022/03/10 14:04:54;;;;;;;6.57;3.85;;;;;;;5.71;28.51;101161.09;6349589;27;20500;-67
2022/03/10 14:08:18;;;;;;;5.35;3.10;;;;;;;5.76;28.45;101167.00;6332150;28;20170;-68
2022/03/10 14:11:27;;;;;;;4.10;2.42;;;;;;;5.16;28.00;101156.22;6349652;28;20048;-68
2022/03/10 14:14:37;;;;;;;6.63;3.17;;;;;;;4.98;28.81;101164.38;6349474;28;20047;-68
2022/03/10 14:17:42;;;;;;;7.32;3.40;;;;;;;4.58;29.08;101172.91;6348255;28;20051;-71
2022/03/10 14:20:48;;;;;;;5.75;2.80;;;;;;;4.50;29.10;101170.44;6331124;28;20073;-71